sensor_id;sensor_type;location;lat;lon;timestamp;temperature;humidity
7388;DHT22;3735;50.136;11.062;2023-03-11T00:00:27;1.80;99.90
7388;DHT22;3735;50.136;11.062;2023-03-11T00:02:56;1.80;99.90
7388;DHT22;3735;50.136;11.062;2023-03-11T00:05:29;1.80;99.90
7388;DHT22;3735;50.136;11.062;2023-03-11T00:07:59;1.80;99.90
7388;DHT22;3735;50.136;11.062;2023-03-11T00:10:37;1.80;99.90
7388;DHT22;3735;50.136;11.062;2023-03-11T00:13:06;1.80;99.90
7388;DHT22;3735;50.136;11.062;2023-03-11T00:15:34;1.70;99.90
7388;DHT22;3735;50.136;11.062;2023-03-11T00:18:01;1.80;99.90
7388;DHT22;3735;50.136;11.062;2023-03-11T00:20:30;1.80;99.90
7388;DHT22;3735;50.136;11.062;2023-03-11T00:23:07;1.80;99.90
7388;DHT22;3735;50.136;11.062;2023-03-11T00:25:36;1.80;99.90
7388;DHT22;3735;50.136;11.062;2023-03-11T00:28:03;1.80;99.90
7388;DHT22;3735;50.136;11.062;2023-03-11T00:30:32;1.80;99.90
7388;DHT22;3735;50.136;11.062;2023-03-11T00:32:58;1.80;99.90
7388;DHT22;3735;50.136;11.062;2023-03-11T00:35:29;1.80;99.90
7388;DHT22;3735;50.136;11.062;2023-03-11T00:37:58;1.80;99.90
7388;DHT22;3735;50.136;11.062;2023-03-11T00:40:28;1.80;99.90
7388;DHT22;3735;50.136;11.062;2023-03-11T00:42:55;1.80;99.90
7388;DHT22;3735;50.136;11.062;2023-03-11T00:45:21;1.80;99.90
7388;DHT22;3735;50.136;11.062;2023-03-11T00:47:47;1.80;99.90
7388;DHT22;3735;50.136;11.062;2023-03-11T00:50:18;1.80;99.90
7388;DHT22;3735;50.136;11.062;2023-03-11T00:52:47;1.70;99.90
7388;DHT22;3735;50.136;11.062;2023-03-11T00:55:17;1.70;99.90
7388;DHT22;3735;50.136;11.062;2023-03-11T00:57:45;1.70;99.90
7388;DHT22;3735;50.136;11.062;2023-03-11T01:00:18;1.70;99.90
7388;DHT22;3735;50.136;11.062;2023-03-11T01:02:46;1.70;99.90
7388;DHT22;3735;50.136;11.062;2023-03-11T01:05:12;1.70;99.90
7388;DHT22;3735;50.136;11.062;2023-03-11T01:07:38;1.70;99.90
7388;DHT22;3735;50.136;11.062;2023-03-11T01:10:05;1.70;99.90
7388;DHT22;3735;50.136;11.062;2023-03-11T01:12:32;1.70;99.90
7388;DHT22;3735;50.136;11.062;2023-03-11T01:14:59;1.70;99.90
7388;DHT22;3735;50.136;11.062;2023-03-11T01:17:25;1.70;99.90
7388;DHT22;3735;50.136;11.062;2023-03-11T01:19:51;1.70;99.90
7388;DHT22;3735;50.136;11.062;2023-03-11T01:22:16;1.70;99.90
7388;DHT22;3735;50.136;11.062;2023-03-11T01:24:42;1.60;99.90
7388;DHT22;3735;50.136;11.062;2023-03-11T01:27:08;1.70;99.90
7388;DHT22;3735;50.136;11.062;2023-03-11T01:29:34;1.60;99.90
7388;DHT22;3735;50.136;11.062;2023-03-11T01:32:00;1.60;99.90
7388;DHT22;3735;50.136;11.062;2023-03-11T01:34:25;1.60;99.90
7388;DHT22;3735;50.136;11.062;2023-03-11T01:36:51;1.60;99.90
7388;DHT22;3735;50.136;11.062;2023-03-11T01:39:17;1.60;99.90
7388;DHT22;3735;50.136;11.062;2023-03-11T01:41:43;1.60;99.90
7388;DHT22;3735;50.136;11.062;2023-03-11T01:44:11;1.60;99.90
7388;DHT22;3735;50.136;11.062;2023-03-11T01:49:22;1.60;99.90
7388;DHT22;3735;50.136;11.062;2023-03-11T01:51:51;1.60;99.90
7388;DHT22;3735;50.136;11.062;2023-03-11T01:54:32;1.60;99.90
7388;DHT22;3735;50.136;11.062;2023-03-11T01:57:05;1.60;99.90
7388;DHT22;3735;50.136;11.062;2023-03-11T01:59:38;1.60;99.90
7388;DHT22;3735;50.136;11.062;2023-03-11T02:02:30;1.60;99.90
7388;DHT22;3735;50.136;11.062;2023-03-11T02:05:01;1.60;99.90
7388;DHT22;3735;50.136;11.062;2023-03-11T02:07:28;1.60;99.90
7388;DHT22;3735;50.136;11.062;2023-03-11T02:09:54;1.50;99.90
7388;DHT22;3735;50.136;11.062;2023-03-11T02:12:20;1.50;99.90
7388;DHT22;3735;50.136;11.062;2023-03-11T02:14:48;1.50;99.90
7388;DHT22;3735;50.136;11.062;2023-03-11T02:17:16;1.50;99.90
7388;DHT22;3735;50.136;11.062;2023-03-11T02:22:31;1.40;99.90
7388;DHT22;3735;50.136;11.062;2023-03-11T02:27:44;1.40;99.90
7388;DHT22;3735;50.136;11.062;2023-03-11T02:30:13;1.30;99.90
7388;DHT22;3735;50.136;11.062;2023-03-11T02:32:42;1.30;99.90
7388;DHT22;3735;50.136;11.062;2023-03-11T02:35:12;1.30;99.90
7388;DHT22;3735;50.136;11.062;2023-03-11T02:37:46;1.30;99.90
7388;DHT22;3735;50.136;11.062;2023-03-11T02:43:00;1.30;99.90
7388;DHT22;3735;50.136;11.062;2023-03-11T02:45:30;1.30;99.90
7388;DHT22;3735;50.136;11.062;2023-03-11T02:47:57;1.30;99.90
7388;DHT22;3735;50.136;11.062;2023-03-11T02:50:25;1.20;99.90
7388;DHT22;3735;50.136;11.062;2023-03-11T02:52:53;1.20;99.90
7388;DHT22;3735;50.136;11.062;2023-03-11T02:55:20;1.10;99.90
7388;DHT22;3735;50.136;11.062;2023-03-11T02:57:47;1.10;99.90
7388;DHT22;3735;50.136;11.062;2023-03-11T03:00:15;1.10;99.90
7388;DHT22;3735;50.136;11.062;2023-03-11T03:02:44;1.00;99.90
7388;DHT22;3735;50.136;11.062;2023-03-11T03:05:11;1.00;99.90
7388;DHT22;3735;50.136;11.062;2023-03-11T03:07:37;1.00;99.90
7388;DHT22;3735;50.136;11.062;2023-03-11T03:10:06;1.00;99.90
7388;DHT22;3735;50.136;11.062;2023-03-11T03:12:33;0.90;99.90
7388;DHT22;3735;50.136;11.062;2023-03-11T03:14:58;0.90;99.90
7388;DHT22;3735;50.136;11.062;2023-03-11T03:17:24;0.90;99.90
7388;DHT22;3735;50.136;11.062;2023-03-11T03:19:50;0.90;99.90
7388;DHT22;3735;50.136;11.062;2023-03-11T03:22:16;0.90;99.90
7388;DHT22;3735;50.136;11.062;2023-03-11T03:24:41;0.90;99.90
7388;DHT22;3735;50.136;11.062;2023-03-11T03:27:07;0.90;99.90
7388;DHT22;3735;50.136;11.062;2023-03-11T03:29:33;0.90;99.90
7388;DHT22;3735;50.136;11.062;2023-03-11T03:31:59;0.90;99.90
7388;DHT22;3735;50.136;11.062;2023-03-11T03:34:24;0.90;99.90
7388;DHT22;3735;50.136;11.062;2023-03-11T03:36:50;0.90;99.90
7388;DHT22;3735;50.136;11.062;2023-03-11T03:39:16;0.80;99.90
7388;DHT22;3735;50.136;11.062;2023-03-11T03:41:44;0.80;99.90
7388;DHT22;3735;50.136;11.062;2023-03-11T03:44:10;0.80;99.90
7388;DHT22;3735;50.136;11.062;2023-03-11T03:46:36;0.80;99.90
7388;DHT22;3735;50.136;11.062;2023-03-11T03:49:03;0.80;99.90
7388;DHT22;3735;50.136;11.062;2023-03-11T03:51:28;0.70;99.90
7388;DHT22;3735;50.136;11.062;2023-03-11T03:53:54;0.80;99.90
7388;DHT22;3735;50.136;11.062;2023-03-11T03:56:20;0.70;99.90
7388;DHT22;3735;50.136;11.062;2023-03-11T03:58:46;0.70;99.90
7388;DHT22;3735;50.136;11.062;2023-03-11T04:01:12;0.70;99.90
7388;DHT22;3735;50.136;11.062;2023-03-11T04:03:38;0.70;99.90
7388;DHT22;3735;50.136;11.062;2023-03-11T04:06:10;0.70;99.90
7388;DHT22;3735;50.136;11.062;2023-03-11T04:08:41;0.70;99.90
7388;DHT22;3735;50.136;11.062;2023-03-11T04:11:07;0.70;99.90
7388;DHT22;3735;50.136;11.062;2023-03-11T04:13:33;0.70;99.90
7388;DHT22;3735;50.136;11.062;2023-03-11T04:15:59;0.70;99.90
7388;DHT22;3735;50.136;11.062;2023-03-11T04:18:26;0.70;99.90
7388;DHT22;3735;50.136;11.062;2023-03-11T04:20:52;0.70;99.90
7388;DHT22;3735;50.136;11.062;2023-03-11T04:23:18;0.70;99.90
7388;DHT22;3735;50.136;11.062;2023-03-11T04:25:44;0.70;99.90
7388;DHT22;3735;50.136;11.062;2023-03-11T04:28:09;0.80;99.90
7388;DHT22;3735;50.136;11.062;2023-03-11T04:30:35;0.80;99.90
7388;DHT22;3735;50.136;11.062;2023-03-11T04:33:01;0.80;99.90
7388;DHT22;3735;50.136;11.062;2023-03-11T04:35:26;0.80;99.90
7388;DHT22;3735;50.136;11.062;2023-03-11T04:37:52;0.80;99.90
7388;DHT22;3735;50.136;11.062;2023-03-11T04:40:18;0.70;99.90
7388;DHT22;3735;50.136;11.062;2023-03-11T04:42:44;0.70;99.90
7388;DHT22;3735;50.136;11.062;2023-03-11T04:45:10;0.70;99.90
7388;DHT22;3735;50.136;11.062;2023-03-11T04:47:36;0.60;99.90
7388;DHT22;3735;50.136;11.062;2023-03-11T04:50:02;0.60;99.90
7388;DHT22;3735;50.136;11.062;2023-03-11T04:52:28;0.60;99.90
7388;DHT22;3735;50.136;11.062;2023-03-11T04:54:54;0.50;99.90
7388;DHT22;3735;50.136;11.062;2023-03-11T04:57:21;0.60;99.90
7388;DHT22;3735;50.136;11.062;2023-03-11T04:59:46;0.60;99.90
7388;DHT22;3735;50.136;11.062;2023-03-11T05:02:12;0.60;99.90
7388;DHT22;3735;50.136;11.062;2023-03-11T05:04:38;0.50;99.90
7388;DHT22;3735;50.136;11.062;2023-03-11T05:07:04;0.40;99.90
7388;DHT22;3735;50.136;11.062;2023-03-11T05:09:29;0.30;99.90
7388;DHT22;3735;50.136;11.062;2023-03-11T05:11:55;0.20;99.90
7388;DHT22;3735;50.136;11.062;2023-03-11T05:14:21;0.00;99.90
7388;DHT22;3735;50.136;11.062;2023-03-11T05:16:47;-0.10;99.90
7388;DHT22;3735;50.136;11.062;2023-03-11T05:19:12;-0.30;99.90
7388;DHT22;3735;50.136;11.062;2023-03-11T05:21:57;-0.30;99.90
7388;DHT22;3735;50.136;11.062;2023-03-11T05:24:23;-0.40;99.90
7388;DHT22;3735;50.136;11.062;2023-03-11T05:26:52;-0.30;99.90
7388;DHT22;3735;50.136;11.062;2023-03-11T05:29:18;-0.20;99.90
7388;DHT22;3735;50.136;11.062;2023-03-11T05:31:44;-0.20;99.90
7388;DHT22;3735;50.136;11.062;2023-03-11T05:34:11;0.00;99.90
7388;DHT22;3735;50.136;11.062;2023-03-11T05:36:37;0.00;99.90
7388;DHT22;3735;50.136;11.062;2023-03-11T05:39:03;0.10;99.90
7388;DHT22;3735;50.136;11.062;2023-03-11T05:41:29;0.10;99.90
7388;DHT22;3735;50.136;11.062;2023-03-11T05:43:55;0.00;99.90
7388;DHT22;3735;50.136;11.062;2023-03-11T05:46:21;-0.10;99.90
7388;DHT22;3735;50.136;11.062;2023-03-11T05:48:47;-0.20;99.90
7388;DHT22;3735;50.136;11.062;2023-03-11T05:51:13;-0.30;99.90
7388;DHT22;3735;50.136;11.062;2023-03-11T05:53:42;-0.30;99.90
7388;DHT22;3735;50.136;11.062;2023-03-11T05:56:14;-0.40;99.90
7388;DHT22;3735;50.136;11.062;2023-03-11T05:58:40;-0.50;99.90
7388;DHT22;3735;50.136;11.062;2023-03-11T06:01:11;-0.50;99.90
7388;DHT22;3735;50.136;11.062;2023-03-11T06:03:39;-0.50;99.90
7388;DHT22;3735;50.136;11.062;2023-03-11T06:06:07;-0.50;99.90
7388;DHT22;3735;50.136;11.062;2023-03-11T06:08:35;-0.50;99.90
7388;DHT22;3735;50.136;11.062;2023-03-11T06:11:03;-0.50;99.90
7388;DHT22;3735;50.136;11.062;2023-03-11T06:13:30;-0.40;99.90
7388;DHT22;3735;50.136;11.062;2023-03-11T06:15:56;-0.20;99.90
7388;DHT22;3735;50.136;11.062;2023-03-11T06:18:22;-0.10;99.90
7388;DHT22;3735;50.136;11.062;2023-03-11T06:20:48;0.10;99.90
7388;DHT22;3735;50.136;11.062;2023-03-11T06:23:14;0.30;99.90
7388;DHT22;3735;50.136;11.062;2023-03-11T06:25:40;0.60;99.90
7388;DHT22;3735;50.136;11.062;2023-03-11T06:28:05;0.70;99.90
7388;DHT22;3735;50.136;11.062;2023-03-11T06:30:31;1.00;99.90
7388;DHT22;3735;50.136;11.062;2023-03-11T06:32:57;1.50;99.90
7388;DHT22;3735;50.136;11.062;2023-03-11T06:35:22;2.20;99.90
7388;DHT22;3735;50.136;11.062;2023-03-11T06:37:48;2.40;99.90
7388;DHT22;3735;50.136;11.062;2023-03-11T06:40:14;2.40;99.90
7388;DHT22;3735;50.136;11.062;2023-03-11T06:42:40;2.40;99.90
7388;DHT22;3735;50.136;11.062;2023-03-11T06:45:06;2.50;99.90
7388;DHT22;3735;50.136;11.062;2023-03-11T06:47:32;2.60;99.90
7388;DHT22;3735;50.136;11.062;2023-03-11T06:49:58;2.50;99.90
7388;DHT22;3735;50.136;11.062;2023-03-11T06:52:24;2.40;99.90
7388;DHT22;3735;50.136;11.062;2023-03-11T06:54:52;2.30;99.90
7388;DHT22;3735;50.136;11.062;2023-03-11T06:57:17;2.20;99.90
7388;DHT22;3735;50.136;11.062;2023-03-11T06:59:43;2.20;99.90
7388;DHT22;3735;50.136;11.062;2023-03-11T07:02:11;2.30;99.90
7388;DHT22;3735;50.136;11.062;2023-03-11T07:04:38;2.40;99.90
7388;DHT22;3735;50.136;11.062;2023-03-11T07:07:03;2.80;99.90
7388;DHT22;3735;50.136;11.062;2023-03-11T07:09:29;3.30;99.90
7388;DHT22;3735;50.136;11.062;2023-03-11T07:11:55;3.60;99.90
7388;DHT22;3735;50.136;11.062;2023-03-11T07:14:21;3.80;99.90
7388;DHT22;3735;50.136;11.062;2023-03-11T07:16:46;3.60;99.90
7388;DHT22;3735;50.136;11.062;2023-03-11T07:19:14;3.50;99.90
7388;DHT22;3735;50.136;11.062;2023-03-11T07:21:40;3.30;99.90
7388;DHT22;3735;50.136;11.062;2023-03-11T07:24:06;3.30;99.90
7388;DHT22;3735;50.136;11.062;2023-03-11T07:26:34;3.40;99.90
7388;DHT22;3735;50.136;11.062;2023-03-11T07:29:00;3.70;99.90
7388;DHT22;3735;50.136;11.062;2023-03-11T07:31:31;4.10;99.90
7388;DHT22;3735;50.136;11.062;2023-03-11T07:34:01;4.50;99.90
7388;DHT22;3735;50.136;11.062;2023-03-11T07:36:29;4.40;99.90
7388;DHT22;3735;50.136;11.062;2023-03-11T07:38:57;4.30;99.90
7388;DHT22;3735;50.136;11.062;2023-03-11T07:41:25;4.30;99.90
7388;DHT22;3735;50.136;11.062;2023-03-11T07:43:56;4.40;99.90
7388;DHT22;3735;50.136;11.062;2023-03-11T07:46:24;4.50;99.90
7388;DHT22;3735;50.136;11.062;2023-03-11T07:48:51;4.50;99.90
7388;DHT22;3735;50.136;11.062;2023-03-11T07:51:18;4.50;99.90
7388;DHT22;3735;50.136;11.062;2023-03-11T07:53:46;4.40;99.90
7388;DHT22;3735;50.136;11.062;2023-03-11T07:56:15;4.30;99.90
7388;DHT22;3735;50.136;11.062;2023-03-11T07:58:42;4.60;99.90
7388;DHT22;3735;50.136;11.062;2023-03-11T08:01:11;5.00;99.90
7388;DHT22;3735;50.136;11.062;2023-03-11T08:03:41;5.00;99.90
7388;DHT22;3735;50.136;11.062;2023-03-11T08:06:35;6.10;99.90
7388;DHT22;3735;50.136;11.062;2023-03-11T08:09:04;7.90;99.90
7388;DHT22;3735;50.136;11.062;2023-03-11T08:11:32;9.10;99.90
7388;DHT22;3735;50.136;11.062;2023-03-11T08:13:58;10.10;99.90
7388;DHT22;3735;50.136;11.062;2023-03-11T08:16:24;10.90;99.90
7388;DHT22;3735;50.136;11.062;2023-03-11T08:18:51;10.80;99.90
7388;DHT22;3735;50.136;11.062;2023-03-11T08:21:20;11.10;99.90
7388;DHT22;3735;50.136;11.062;2023-03-11T08:23:51;10.70;99.90
7388;DHT22;3735;50.136;11.062;2023-03-11T08:26:21;9.80;99.90
7388;DHT22;3735;50.136;11.062;2023-03-11T08:28:48;8.40;99.90
7388;DHT22;3735;50.136;11.062;2023-03-11T08:33:45;6.90;99.90
7388;DHT22;3735;50.136;11.062;2023-03-11T08:36:14;6.40;99.90
7388;DHT22;3735;50.136;11.062;2023-03-11T08:38:40;5.90;99.90
7388;DHT22;3735;50.136;11.062;2023-03-11T08:41:06;5.40;99.90
7388;DHT22;3735;50.136;11.062;2023-03-11T08:43:33;5.30;99.90
7388;DHT22;3735;50.136;11.062;2023-03-11T08:46:00;5.60;99.90
7388;DHT22;3735;50.136;11.062;2023-03-11T08:48:26;6.20;99.90
7388;DHT22;3735;50.136;11.062;2023-03-11T08:50:53;6.50;99.90
7388;DHT22;3735;50.136;11.062;2023-03-11T08:53:19;6.40;99.90
7388;DHT22;3735;50.136;11.062;2023-03-11T08:55:46;6.20;99.90
7388;DHT22;3735;50.136;11.062;2023-03-11T08:58:12;6.20;99.90
7388;DHT22;3735;50.136;11.062;2023-03-11T09:00:38;6.20;99.90
7388;DHT22;3735;50.136;11.062;2023-03-11T09:03:03;6.30;99.90
7388;DHT22;3735;50.136;11.062;2023-03-11T09:05:29;6.30;99.90
7388;DHT22;3735;50.136;11.062;2023-03-11T09:07:55;6.30;99.90
7388;DHT22;3735;50.136;11.062;2023-03-11T09:10:20;6.00;99.90
7388;DHT22;3735;50.136;11.062;2023-03-11T09:12:46;5.80;99.90
7388;DHT22;3735;50.136;11.062;2023-03-11T09:15:12;5.80;99.90
7388;DHT22;3735;50.136;11.062;2023-03-11T09:17:38;5.90;99.90
7388;DHT22;3735;50.136;11.062;2023-03-11T09:20:07;6.00;99.90
7388;DHT22;3735;50.136;11.062;2023-03-11T09:22:33;5.90;99.90
7388;DHT22;3735;50.136;11.062;2023-03-11T09:24:59;6.10;99.90
7388;DHT22;3735;50.136;11.062;2023-03-11T09:27:24;6.70;99.90
7388;DHT22;3735;50.136;11.062;2023-03-11T09:29:50;7.70;99.90
7388;DHT22;3735;50.136;11.062;2023-03-11T09:32:16;8.00;99.90
7388;DHT22;3735;50.136;11.062;2023-03-11T09:34:42;7.60;99.90
7388;DHT22;3735;50.136;11.062;2023-03-11T09:37:07;7.20;99.90
7388;DHT22;3735;50.136;11.062;2023-03-11T09:39:33;7.40;99.90
7388;DHT22;3735;50.136;11.062;2023-03-11T09:45:05;8.70;99.90
7388;DHT22;3735;50.136;11.062;2023-03-11T09:48:26;7.90;99.90
7388;DHT22;3735;50.136;11.062;2023-03-11T09:51:11;6.90;99.90
7388;DHT22;3735;50.136;11.062;2023-03-11T09:53:44;6.10;99.90
7388;DHT22;3735;50.136;11.062;2023-03-11T09:56:14;5.40;99.90
7388;DHT22;3735;50.136;11.062;2023-03-11T09:58:48;4.90;99.90
7388;DHT22;3735;50.136;11.062;2023-03-11T10:01:49;4.40;99.90
7388;DHT22;3735;50.136;11.062;2023-03-11T10:06:46;3.70;99.90
7388;DHT22;3735;50.136;11.062;2023-03-11T10:09:36;3.40;99.90
7388;DHT22;3735;50.136;11.062;2023-03-11T10:18:28;3.10;99.90
7388;DHT22;3735;50.136;11.062;2023-03-11T10:21:37;3.30;99.90
7388;DHT22;3735;50.136;11.062;2023-03-11T10:27:15;4.00;99.90
7388;DHT22;3735;50.136;11.062;2023-03-11T10:29:55;4.50;99.90
7388;DHT22;3735;50.136;11.062;2023-03-11T10:36:09;6.00;99.90
7388;DHT22;3735;50.136;11.062;2023-03-11T10:38:43;7.10;99.90
7388;DHT22;3735;50.136;11.062;2023-03-11T10:41:39;8.50;99.90
7388;DHT22;3735;50.136;11.062;2023-03-11T10:44:19;11.40;99.90
7388;DHT22;3735;50.136;11.062;2023-03-11T10:46:58;14.00;99.90
7388;DHT22;3735;50.136;11.062;2023-03-11T10:49:24;16.00;99.90
7388;DHT22;3735;50.136;11.062;2023-03-11T10:51:52;17.40;99.90
7388;DHT22;3735;50.136;11.062;2023-03-11T10:54:34;16.40;99.90
7388;DHT22;3735;50.136;11.062;2023-03-11T10:57:24;13.60;99.90
7388;DHT22;3735;50.136;11.062;2023-03-11T10:59:59;10.90;99.90
7388;DHT22;3735;50.136;11.062;2023-03-11T11:02:38;9.10;99.90
7388;DHT22;3735;50.136;11.062;2023-03-11T11:07:46;7.50;99.90
7388;DHT22;3735;50.136;11.062;2023-03-11T11:10:20;7.10;99.90
7388;DHT22;3735;50.136;11.062;2023-03-11T11:15:42;6.20;99.90
7388;DHT22;3735;50.136;11.062;2023-03-11T11:21:03;5.90;99.90
7388;DHT22;3735;50.136;11.062;2023-03-11T11:23:33;5.90;99.90
7388;DHT22;3735;50.136;11.062;2023-03-11T11:26:06;5.80;99.90
7388;DHT22;3735;50.136;11.062;2023-03-11T11:28:40;5.50;99.90
7388;DHT22;3735;50.136;11.062;2023-03-11T11:31:21;5.30;99.90
7388;DHT22;3735;50.136;11.062;2023-03-11T11:33:50;5.10;99.90
7388;DHT22;3735;50.136;11.062;2023-03-11T11:36:20;5.10;99.90
7388;DHT22;3735;50.136;11.062;2023-03-11T11:38:52;5.30;99.90
7388;DHT22;3735;50.136;11.062;2023-03-11T11:41:21;5.50;99.90
7388;DHT22;3735;50.136;11.062;2023-03-11T11:49:31;5.50;99.90
7388;DHT22;3735;50.136;11.062;2023-03-11T11:52:10;5.50;99.90
7388;DHT22;3735;50.136;11.062;2023-03-11T11:54:49;5.30;99.90
7388;DHT22;3735;50.136;11.062;2023-03-11T11:57:20;5.30;99.90
7388;DHT22;3735;50.136;11.062;2023-03-11T11:59:47;5.30;99.90
7388;DHT22;3735;50.136;11.062;2023-03-11T12:02:37;5.30;99.90
7388;DHT22;3735;50.136;11.062;2023-03-11T12:05:28;5.50;99.90
7388;DHT22;3735;50.136;11.062;2023-03-11T12:11:25;5.50;99.90
7388;DHT22;3735;50.136;11.062;2023-03-11T12:24:17;6.60;99.90
7388;DHT22;3735;50.136;11.062;2023-03-11T12:26:50;6.90;99.90
7388;DHT22;3735;50.136;11.062;2023-03-11T12:31:49;6.90;99.90
7388;DHT22;3735;50.136;11.062;2023-03-11T12:34:19;6.90;99.90
7388;DHT22;3735;50.136;11.062;2023-03-11T12:36:47;7.10;99.90
7388;DHT22;3735;50.136;11.062;2023-03-11T12:39:35;7.20;99.90
7388;DHT22;3735;50.136;11.062;2023-03-11T12:44:36;6.70;99.90
7388;DHT22;3735;50.136;11.062;2023-03-11T12:49:53;5.90;99.90
7388;DHT22;3735;50.136;11.062;2023-03-11T12:52:25;5.70;99.90
7388;DHT22;3735;50.136;11.062;2023-03-11T13:00:15;4.90;99.90
7388;DHT22;3735;50.136;11.062;2023-03-11T13:05:53;4.80;99.90
7388;DHT22;3735;50.136;11.062;2023-03-11T13:08:50;4.80;99.90
7388;DHT22;3735;50.136;11.062;2023-03-11T13:11:36;4.70;99.90
7388;DHT22;3735;50.136;11.062;2023-03-11T13:16:41;4.70;99.90
7388;DHT22;3735;50.136;11.062;2023-03-11T13:21:57;4.90;99.90
7388;DHT22;3735;50.136;11.062;2023-03-11T13:42:27;5.60;99.90
7388;DHT22;3735;50.136;11.062;2023-03-11T13:44:58;5.50;99.90
7388;DHT22;3735;50.136;11.062;2023-03-11T13:47:26;5.40;99.90
7388;DHT22;3735;50.136;11.062;2023-03-11T13:50:19;5.50;99.90
7388;DHT22;3735;50.136;11.062;2023-03-11T13:52:51;5.70;99.90
7388;DHT22;3735;50.136;11.062;2023-03-11T13:55:20;5.70;99.90
7388;DHT22;3735;50.136;11.062;2023-03-11T13:57:55;5.70;99.90
7388;DHT22;3735;50.136;11.062;2023-03-11T14:00:26;5.60;99.90
7388;DHT22;3735;50.136;11.062;2023-03-11T14:03:00;5.50;99.90
7388;DHT22;3735;50.136;11.062;2023-03-11T14:05:35;5.50;99.90
7388;DHT22;3735;50.136;11.062;2023-03-11T14:08:25;5.40;99.90
7388;DHT22;3735;50.136;11.062;2023-03-11T14:13:52;5.10;99.90
7388;DHT22;3735;50.136;11.062;2023-03-11T14:19:16;5.10;99.90
7388;DHT22;3735;50.136;11.062;2023-03-11T14:21:48;4.90;99.90
7388;DHT22;3735;50.136;11.062;2023-03-11T14:24:24;4.90;99.90
7388;DHT22;3735;50.136;11.062;2023-03-11T14:26:55;4.80;99.90
7388;DHT22;3735;50.136;11.062;2023-03-11T14:29:38;4.90;99.90
7388;DHT22;3735;50.136;11.062;2023-03-11T14:32:37;4.90;99.90
7388;DHT22;3735;50.136;11.062;2023-03-11T14:35:18;4.80;99.90
7388;DHT22;3735;50.136;11.062;2023-03-11T14:37:45;4.80;99.90
7388;DHT22;3735;50.136;11.062;2023-03-11T14:40:37;4.90;99.90
7388;DHT22;3735;50.136;11.062;2023-03-11T14:43:05;5.00;99.90
7388;DHT22;3735;50.136;11.062;2023-03-11T14:45:34;5.10;99.90
7388;DHT22;3735;50.136;11.062;2023-03-11T14:50:49;5.30;99.90
7388;DHT22;3735;50.136;11.062;2023-03-11T14:56:50;5.50;99.90
7388;DHT22;3735;50.136;11.062;2023-03-11T14:59:30;5.70;99.90
7388;DHT22;3735;50.136;11.062;2023-03-11T15:02:19;5.80;99.90
7388;DHT22;3735;50.136;11.062;2023-03-11T15:04:52;5.90;99.90
7388;DHT22;3735;50.136;11.062;2023-03-11T15:07:20;6.20;99.90
7388;DHT22;3735;50.136;11.062;2023-03-11T15:09:47;6.60;99.90
7388;DHT22;3735;50.136;11.062;2023-03-11T15:12:30;7.00;99.90
7388;DHT22;3735;50.136;11.062;2023-03-11T15:15:02;7.80;99.90
7388;DHT22;3735;50.136;11.062;2023-03-11T15:17:51;8.20;99.90
7388;DHT22;3735;50.136;11.062;2023-03-11T15:20:33;8.60;99.90
7388;DHT22;3735;50.136;11.062;2023-03-11T15:23:05;8.20;99.90
7388;DHT22;3735;50.136;11.062;2023-03-11T15:25:35;7.60;99.90
7388;DHT22;3735;50.136;11.062;2023-03-11T15:28:22;7.00;99.90
7388;DHT22;3735;50.136;11.062;2023-03-11T15:33:41;6.50;99.90
7388;DHT22;3735;50.136;11.062;2023-03-11T15:41:46;5.70;99.90
7388;DHT22;3735;50.136;11.062;2023-03-11T15:47:02;5.10;99.90
7388;DHT22;3735;50.136;11.062;2023-03-11T15:49:30;4.80;99.90
7388;DHT22;3735;50.136;11.062;2023-03-11T15:52:00;4.50;99.90
7388;DHT22;3735;50.136;11.062;2023-03-11T15:54:27;4.30;99.90
7388;DHT22;3735;50.136;11.062;2023-03-11T15:56:55;4.10;99.90
7388;DHT22;3735;50.136;11.062;2023-03-11T15:59:23;4.00;99.90
7388;DHT22;3735;50.136;11.062;2023-03-11T16:01:49;3.90;99.90
7388;DHT22;3735;50.136;11.062;2023-03-11T16:04:17;3.80;99.90
7388;DHT22;3735;50.136;11.062;2023-03-11T16:06:44;3.80;99.90
7388;DHT22;3735;50.136;11.062;2023-03-11T16:09:12;3.80;99.90
7388;DHT22;3735;50.136;11.062;2023-03-11T16:11:39;3.80;99.90
7388;DHT22;3735;50.136;11.062;2023-03-11T16:14:16;3.80;99.90
7388;DHT22;3735;50.136;11.062;2023-03-11T16:16:44;3.80;99.90
7388;DHT22;3735;50.136;11.062;2023-03-11T16:19:11;3.80;99.90
7388;DHT22;3735;50.136;11.062;2023-03-11T16:21:41;3.80;99.90
7388;DHT22;3735;50.136;11.062;2023-03-11T16:24:20;3.70;99.90
7388;DHT22;3735;50.136;11.062;2023-03-11T16:26:48;3.70;99.90
7388;DHT22;3735;50.136;11.062;2023-03-11T16:29:17;3.60;99.90
7388;DHT22;3735;50.136;11.062;2023-03-11T16:31:43;3.50;99.90
7388;DHT22;3735;50.136;11.062;2023-03-11T16:34:09;3.50;99.90
7388;DHT22;3735;50.136;11.062;2023-03-11T16:36:35;3.40;99.90
7388;DHT22;3735;50.136;11.062;2023-03-11T16:39:01;3.20;99.90
7388;DHT22;3735;50.136;11.062;2023-03-11T16:41:27;3.10;99.90
7388;DHT22;3735;50.136;11.062;2023-03-11T16:43:52;2.90;99.90
7388;DHT22;3735;50.136;11.062;2023-03-11T16:46:19;2.80;99.90
7388;DHT22;3735;50.136;11.062;2023-03-11T16:48:44;2.60;99.90
7388;DHT22;3735;50.136;11.062;2023-03-11T16:51:10;2.50;99.90
7388;DHT22;3735;50.136;11.062;2023-03-11T16:53:36;2.50;99.90
7388;DHT22;3735;50.136;11.062;2023-03-11T16:56:03;2.40;99.90
7388;DHT22;3735;50.136;11.062;2023-03-11T16:58:29;2.40;99.90
7388;DHT22;3735;50.136;11.062;2023-03-11T17:00:55;2.40;99.90
7388;DHT22;3735;50.136;11.062;2023-03-11T17:03:21;2.30;99.90
7388;DHT22;3735;50.136;11.062;2023-03-11T17:05:47;2.30;99.90
7388;DHT22;3735;50.136;11.062;2023-03-11T17:08:13;2.30;99.90
7388;DHT22;3735;50.136;11.062;2023-03-11T17:10:42;2.30;99.90
7388;DHT22;3735;50.136;11.062;2023-03-11T17:13:11;2.30;99.90
7388;DHT22;3735;50.136;11.062;2023-03-11T17:15:38;2.40;99.90
7388;DHT22;3735;50.136;11.062;2023-03-11T17:18:06;2.40;99.90
7388;DHT22;3735;50.136;11.062;2023-03-11T17:20:32;2.30;99.90
7388;DHT22;3735;50.136;11.062;2023-03-11T17:22:59;2.30;99.90
7388;DHT22;3735;50.136;11.062;2023-03-11T17:25:25;2.30;99.90
7388;DHT22;3735;50.136;11.062;2023-03-11T17:27:51;2.30;99.90
7388;DHT22;3735;50.136;11.062;2023-03-11T17:30:17;2.20;99.90
7388;DHT22;3735;50.136;11.062;2023-03-11T17:32:44;2.30;99.90
7388;DHT22;3735;50.136;11.062;2023-03-11T17:35:10;2.20;99.90
7388;DHT22;3735;50.136;11.062;2023-03-11T17:37:35;2.10;99.90
7388;DHT22;3735;50.136;11.062;2023-03-11T17:40:01;2.10;99.90
7388;DHT22;3735;50.136;11.062;2023-03-11T17:42:27;2.10;99.90
7388;DHT22;3735;50.136;11.062;2023-03-11T17:44:56;1.90;99.90
7388;DHT22;3735;50.136;11.062;2023-03-11T17:47:22;1.80;99.90
7388;DHT22;3735;50.136;11.062;2023-03-11T17:49:50;1.60;99.90
7388;DHT22;3735;50.136;11.062;2023-03-11T17:52:17;1.60;99.90
7388;DHT22;3735;50.136;11.062;2023-03-11T17:54:43;1.40;99.90
7388;DHT22;3735;50.136;11.062;2023-03-11T17:57:09;1.40;99.90
7388;DHT22;3735;50.136;11.062;2023-03-11T17:59:35;1.40;99.90
7388;DHT22;3735;50.136;11.062;2023-03-11T18:02:01;1.30;99.90
7388;DHT22;3735;50.136;11.062;2023-03-11T18:04:27;1.20;99.90
7388;DHT22;3735;50.136;11.062;2023-03-11T18:06:53;1.10;99.90
7388;DHT22;3735;50.136;11.062;2023-03-11T18:09:19;1.00;99.90
7388;DHT22;3735;50.136;11.062;2023-03-11T18:11:46;1.00;99.90
7388;DHT22;3735;50.136;11.062;2023-03-11T18:14:12;0.90;99.90
7388;DHT22;3735;50.136;11.062;2023-03-11T18:16:38;1.00;99.90